Time;durP1;ratioP1;P1;durP2;ratioP2;P2;SDS_P1;SDS_P2;PMS_P1;PMS_P2;Temp;Humidity;BMP_temperature;BMP_pressure;BME280_temperature;BME280_humidity;BME280_pressure;Samples;Min_cycle;Max_cycle;Signal;HPM_P1;HPM_P2
2021/06/26 00:02:16;;;;;;;9.88;2.60;;;;;;;24.62;55.48;100096.30;1647237;85;21158;-88
2021/06/26 00:04:44;;;;;;;7.67;2.75;;;;;;;24.58;55.61;100097.98;1652722;86;21088;-88
2021/06/26 00:07:12;;;;;;;10.13;2.50;;;;;;;24.04;55.96;100022.73;1650114;86;21026;-89
2021/06/26 00:09:41;;;;;;;9.33;2.83;;;;;;;24.47;56.13;100102.67;1641586;86;21626;-89
2021/06/26 00:12:09;;;;;;;8.00;2.87;;;;;;;24.44;56.51;100105.97;1637783;86;21088;-87
2021/06/26 00:14:36;;;;;;;9.88;3.05;;;;;;;24.41;56.68;100101.63;1639447;86;21563;-89
2021/06/26 00:17:03;;;;;;;24.90;4.03;;;;;;;24.37;56.94;100100.59;1647200;86;21207;-89
2021/06/26 00:19:30;;;;;;;8.13;2.50;;;;;;;24.33;57.00;100111.80;1641482;86;21025;-88
2021/06/26 00:21:57;;;;;;;8.60;2.95;;;;;;;24.28;57.29;100098.48;1601341;88;21085;-87
2021/06/26 00:24:24;;;;;;;9.40;3.17;;;;;;;24.21;57.62;100107.53;1603781;88;21077;-89
2021/06/26 00:26:51;;;;;;;12.18;3.72;;;;;;;24.11;57.89;100102.19;1603946;88;21098;-85
2021/06/26 00:29:18;;;;;;;5.42;2.10;;;;;;;24.04;58.01;100106.58;1615274;88;21102;-88
2021/06/26 00:31:45;;;;;;;7.33;2.90;;;;;;;23.99;57.96;100093.55;1618848;88;21140;-91
2021/06/26 00:34:11;;;;;;;3.72;2.37;;;;;;;23.94;57.90;100092.22;1603624;88;21581;-88
2021/06/26 00:36:37;;;;;;;9.30;3.17;;;;;;;23.87;58.08;100086.55;1603736;88;21070;-87
2021/06/26 00:39:06;;;;;;;7.92;2.35;;;;;;;23.88;57.98;100093.64;1615740;88;21065;-88
2021/06/26 00:41:32;;;;;;;6.15;3.12;;;;;;;23.86;57.94;100087.64;1603267;88;21191;-85
2021/06/26 00:44:02;;;;;;;6.75;2.55;;;;;;;23.84;57.80;100086.30;1620481;88;21132;-86
2021/06/26 00:46:28;;;;;;;6.65;2.22;;;;;;;23.80;57.68;100084.70;1606105;88;21106;-90
2021/06/26 00:48:56;;;;;;;8.63;1.72;;;;;;;23.78;57.84;100085.50;1612127;88;21080;-91
2021/06/26 00:51:22;;;;;;;11.00;2.08;;;;;;;23.76;57.85;100092.33;1587712;86;21045;-88
2021/06/26 00:53:48;;;;;;;6.58;1.35;;;;;;;23.73;57.69;100094.24;1605629;85;21067;-84
2021/06/26 00:56:14;;;;;;;7.53;2.10;;;;;;;23.68;57.62;100097.82;1607567;85;21045;-88
2021/06/26 00:58:42;;;;;;;11.33;1.95;;;;;;;23.66;57.63;100091.30;1613277;84;21084;-85
2021/06/26 01:01:09;;;;;;;5.10;2.02;;;;;;;23.63;57.64;100086.96;1604829;85;21047;-89
2021/06/26 01:03:36;;;;;;;4.10;2.10;;;;;;;23.60;57.73;100087.52;1602256;85;21131;-88
2021/06/26 01:06:02;;;;;;;7.70;2.05;;;;;;;23.59;57.56;100089.98;1615730;88;21095;-87
2021/06/26 01:08:28;;;;;;;5.83;2.25;;;;;;;23.57;57.43;100094.34;1602029;88;21042;-87
2021/06/26 01:10:58;;;;;;;8.88;1.57;;;;;;;23.53;57.68;100090.56;1583226;88;21155;-87
2021/06/26 01:13:25;;;;;;;7.15;1.82;;;;;;;23.52;57.49;100085.64;1604291;88;21133;-86
2021/06/26 01:15:53;;;;;;;10.10;1.77;;;;;;;23.50;57.23;100086.47;1600006;88;21093;-86
2021/06/26 01:18:20;;;;;;;2.87;1.90;;;;;;;23.49;57.21;100096.30;1596538;88;21062;-86
2021/06/26 01:20:47;;;;;;;5.22;1.45;;;;;;;23.47;57.20;100099.30;1606483;88;21500;-88
2021/06/26 01:23:14;;;;;;;4.80;1.98;;;;;;;23.46;57.09;100092.77;1600745;88;21114;-86
2021/06/26 01:25:40;;;;;;;11.97;2.15;;;;;;;23.42;57.13;100095.23;1600894;88;21614;-89
2021/06/26 01:28:07;;;;;;;6.62;1.42;;;;;;;23.39;57.09;100091.70;1606873;88;21045;-91
2021/06/26 01:30:36;;;;;;;6.60;1.77;;;;;;;23.39;57.11;100097.69;1604956;88;21617;-87
2021/06/26 01:33:05;;;;;;;8.50;2.95;;;;;;;23.41;57.07;100096.31;1604059;88;21026;-87
2021/06/26 01:35:31;;;;;;;7.75;2.27;;;;;;;23.44;56.91;100086.80;1602255;88;21326;-88
2021/06/26 01:38:01;;;;;;;9.90;2.10;;;;;;;23.44;56.91;100090.88;1609599;87;21114;-86
2021/06/26 01:42:26;;;;;;;3.77;1.67;;;;;;;23.52;56.83;100092.44;1801217;78;22946;-86
2021/06/26 01:44:52;;;;;;;7.67;2.30;;;;;;;23.54;57.04;100101.69;1758682;80;20993;-87
2021/06/26 01:47:18;;;;;;;3.42;1.32;;;;;;;23.58;56.82;100095.95;1755705;80;20960;-89
2021/06/26 01:49:45;;;;;;;11.53;2.50;;;;;;;23.60;56.86;100095.15;1735458;81;21022;-84
2021/06/26 01:52:11;;;;;;;2.92;1.77;;;;;;;23.62;56.31;100089.40;1769359;79;21755;-89
2021/06/26 01:54:38;;;;;;;5.37;2.58;;;;;;;23.58;56.25;100088.34;1765234;80;21152;-87
2021/06/26 01:57:11;;;;;;;5.60;3.10;;;;;;;22.98;56.13;99996.73;1708324;81;21117;-88
2021/06/26 01:59:38;;;;;;;5.33;2.98;;;;;;;23.45;56.38;100078.36;1710031;78;21101;-89
2021/06/26 02:02:06;;;;;;;12.95;3.35;;;;;;;23.37;56.57;100074.84;1671167;81;21068;-87
2021/06/26 02:04:32;;;;;;;5.05;3.30;;;;;;;23.31;56.74;100072.70;1665773;83;21581;-89
2021/06/26 02:06:59;;;;;;;6.97;4.08;;;;;;;23.25;57.01;100077.91;1663759;83;21034;-89
2021/06/26 02:09:25;;;;;;;8.48;3.77;;;;;;;23.23;57.07;100076.57;1656448;84;21073;-88
2021/06/26 02:11:52;;;;;;;11.33;3.42;;;;;;;23.21;57.11;100080.92;1656070;85;20989;-85
2021/06/26 02:14:19;;;;;;;6.55;2.83;;;;;;;23.21;57.14;100078.20;1641128;84;21140;-88
2021/06/26 02:16:47;;;;;;;4.70;2.67;;;;;;;23.18;57.22;100077.39;1671909;84;21121;-90
2021/06/26 02:19:12;;;;;;;9.60;3.62;;;;;;;23.17;57.30;100081.22;1678772;84;21113;-86
2021/06/26 02:21:39;;;;;;;7.17;2.70;;;;;;;23.15;57.42;100082.05;1670417;84;21037;-89
2021/06/26 02:24:06;;;;;;;3.45;2.12;;;;;;;23.19;57.34;100075.48;1631878;86;21591;-86
2021/06/26 02:26:40;;;;;;;8.88;2.62;;;;;;;23.27;56.76;100066.76;1663761;85;21098;-87
2021/06/26 02:29:02;;;;;;;5.58;1.85;;;;;;;23.36;56.28;100059.64;1618002;86;21536;-86
2021/06/26 02:31:40;;;;;;;;;;;;;;;;;;;;;
2021/06/26 02:34:20;;;;;;;8.35;2.20;;;;;;;23.56;55.76;100056.53;1618995;84;21050;-94
2021/06/26 02:36:48;;;;;;;3.85;1.80;;;;;;;23.69;55.32;100050.45;1635542;86;21166;-93
2021/06/26 02:39:19;;;;;;;5.67;1.80;;;;;;;23.89;54.98;100059.86;1654043;85;21103;-95
2021/06/26 02:41:47;;;;;;;5.95;2.60;;;;;;;24.10;54.36;100057.78;1638949;85;21078;-93
2021/06/26 02:44:17;;;;;;;7.20;2.08;;;;;;;24.33;53.57;100055.96;1647453;85;21902;-96
2021/06/26 02:46:46;;;;;;;8.73;2.30;;;;;;;24.49;53.10;100051.44;1658787;85;21074;-94
2021/06/26 02:49:12;;;;;;;3.72;2.10;;;;;;;24.67;52.87;100037.64;1640087;85;21068;-89
2021/06/26 02:51:39;;;;;;;20.35;3.80;;;;;;;24.87;52.01;100048.06;1639975;85;21070;-89
2021/06/26 02:54:12;;;;;;;5.47;2.37;;;;;;;25.03;51.69;100044.05;1655665;83;21099;-94
2021/06/26 02:56:44;;;;;;;5.33;2.08;;;;;;;25.12;51.44;100048.28;1674898;79;21056;-94
2021/06/26 02:59:18;;;;;;;7.47;2.05;;;;;;;25.15;51.23;100046.35;1664594;83;20990;-92
2021/06/26 03:01:41;;;;;;;8.75;2.65;;;;;;;25.09;51.34;100038.52;1651543;84;21080;-93
2021/06/26 03:04:09;;;;;;;4.60;2.40;;;;;;;24.96;51.82;100027.77;1625634;85;21438;-94
2021/06/26 03:06:39;;;;;;;7.45;2.25;;;;;;;24.81;52.09;100025.51;1655006;84;20981;-93
2021/06/26 03:09:13;;;;;;;8.75;2.40;;;;;;;24.69;52.28;100027.81;1631126;84;21163;-94
2021/06/26 03:11:50;;;;;;;5.60;2.20;;;;;;;24.66;52.50;100028.41;1647826;84;21007;-95
2021/06/26 03:14:16;;;;;;;4.40;1.85;;;;;;;24.64;52.71;100030.62;1627693;84;20986;-94
2021/06/26 03:16:44;;;;;;;5.08;2.12;;;;;;;24.66;53.28;100036.03;1652026;83;21116;-93
2021/06/26 03:19:14;;;;;;;6.90;2.20;;;;;;;24.70;52.86;100034.09;1618245;84;21652;-92
2021/06/26 03:21:44;;;;;;;7.70;2.25;;;;;;;24.79;53.05;100033.69;1661849;82;21096;-94
2021/06/26 03:24:18;;;;;;;5.58;1.98;;;;;;;24.95;52.70;100041.95;1635717;84;21016;-96
2021/06/26 03:26:46;;;;;;;12.55;3.27;;;;;;;25.15;52.37;100040.09;1650564;83;21031;-93
2021/06/26 03:29:22;;;;;;;8.70;2.58;;;;;;;25.33;51.80;100033.05;1650272;84;21307;-94
2021/06/26 03:31:55;;;;;;;5.72;2.33;;;;;;;25.43;51.51;100028.27;1654346;83;21042;-96
2021/06/26 03:37:10;;;;;;;6.10;2.72;;;;;;;25.65;51.08;100022.74;1647663;82;21043;-95
2021/06/26 03:39:45;;;;;;;8.38;3.05;;;;;;;25.71;50.81;100016.65;1650895;83;21046;-93
2021/06/26 14:00:08;;;;;;;;;;;;;;;27.83;37.54;99841.05;1841482;74;24586;-92
2021/06/26 14:02:37;;;;;;;7.12;0.80;;;;;;;27.88;37.25;99838.97;1748522;81;20141;-92
2021/06/26 14:05:08;;;;;;;4.45;0.75;;;;;;;27.89;36.70;99837.86;1768153;79;21131;-92
2021/06/26 14:07:36;;;;;;;9.23;1.40;;;;;;;26.96;36.01;99664.94;1713198;80;21004;-93
2021/06/26 14:10:03;;;;;;;12.50;0.60;;;;;;;28.02;36.21;99816.97;1736152;79;21005;-91
2021/06/26 14:12:32;;;;;;;12.30;0.42;;;;;;;28.06;36.04;99808.35;1711766;81;21070;-93
2021/06/26 14:15:08;;;;;;;2.17;0.62;;;;;;;28.13;35.59;99803.79;1716021;81;21261;-91
2021/06/26 14:17:37;;;;;;;6.03;0.70;;;;;;;28.18;34.93;99794.59;1732727;80;21579;-91
2021/06/26 14:20:08;;;;;;;3.85;0.37;;;;;;;27.03;34.48;99589.26;1718252;82;21605;-90
2021/06/26 14:22:37;;;;;;;1.80;0.35;;;;;;;28.19;34.74;99767.45;1696191;81;20969;-92
2021/06/26 14:25:05;;;;;;;6.33;0.45;;;;;;;28.23;34.97;99760.20;1702293;81;21029;-91
2021/06/26 14:27:33;;;;;;;6.22;0.57;;;;;;;28.27;34.88;99747.47;1743419;78;21059;-90
2021/06/26 14:30:08;;;;;;;8.85;0.57;;;;;;;28.26;34.98;99748.04;1736285;80;21023;-92
2021/06/26 14:32:35;;;;;;;4.10;0.35;;;;;;;28.23;34.93;99736.34;1742690;81;21041;-92
2021/06/26 14:35:05;;;;;;;3.75;0.80;;;;;;;28.19;35.13;99730.47;1715407;80;21054;-91
2021/06/26 14:37:33;;;;;;;2.65;0.80;;;;;;;28.12;35.41;99718.61;1689403;83;21599;-91
2021/06/26 14:40:07;;;;;;;2.52;0.45;;;;;;;28.03;35.55;99698.07;1693505;83;21065;-90
2021/06/26 14:42:34;;;;;;;4.35;0.45;;;;;;;27.91;35.45;99680.87;1711746;82;21089;-90
2021/06/26 14:45:05;;;;;;;4.85;0.75;;;;;;;27.80;35.27;99660.95;1707652;81;21027;-91
2021/06/26 14:47:34;;;;;;;0.82;0.30;;;;;;;27.71;35.10;99658.22;1713011;81;20962;-91
2021/06/26 14:50:12;;;;;;;1.12;0.20;;;;;;;27.58;34.92;99652.54;1727481;81;21065;-91
2021/06/26 14:52:39;;;;;;;2.33;0.30;;;;;;;27.50;34.83;99645.13;1710071;81;21752;-91
2021/06/26 14:55:07;;;;;;;0.98;0.20;;;;;;;27.46;35.02;99635.92;1731971;81;21091;-92
2021/06/26 14:57:33;;;;;;;5.30;0.30;;;;;;;27.44;35.22;99623.69;1719833;81;21124;-90
2021/06/26 15:00:02;;;;;;;2.35;0.53;;;;;;;27.44;35.21;99614.11;1680795;83;21081;-90
2021/06/26 15:02:36;;;;;;;2.00;0.40;;;;;;;27.45;35.41;99597.95;1691581;82;21109;-90
2021/06/26 15:05:10;;;;;;;2.10;0.20;;;;;;;27.46;35.35;99576.28;1714785;81;20990;-90
2021/06/26 15:07:39;;;;;;;1.57;0.37;;;;;;;27.43;35.62;99561.89;1724603;81;21502;-90
2021/06/26 15:10:11;;;;;;;4.20;0.68;;;;;;;27.45;35.88;99548.69;1722906;81;21122;-90
2021/06/26 15:12:37;;;;;;;5.67;0.37;;;;;;;27.42;35.85;99525.48;1721795;81;20999;-90
2021/06/26 15:15:08;;;;;;;1.05;0.20;;;;;;;27.42;35.86;99528.23;1694343;83;21082;-90
2021/06/26 15:17:38;;;;;;;7.53;1.40;;;;;;;27.39;35.33;99527.52;1695259;81;21052;-91
2021/06/26 15:20:22;;;;;;;;;;;;;;;;;;;;;
2021/06/26 15:22:50;;;;;;;;;;;;;;;;;;;;;
2021/06/26 15:25:11;;;;;;;2.45;0.23;;;;;;;27.42;35.75;99575.31;1752347;80;21006;-91
2021/06/26 15:27:39;;;;;;;3.17;0.30;;;;;;;27.42;36.16;99569.27;1745893;80;20974;-91
2021/06/26 15:30:09;;;;;;;6.30;0.80;;;;;;;27.41;36.46;99562.75;1740369;80;21037;-91
2021/06/26 15:32:38;;;;;;;2.67;0.82;;;;;;;27.39;36.78;99560.35;1714539;81;21024;-89
2021/06/26 15:35:07;;;;;;;4.00;0.40;;;;;;;27.33;37.11;99569.27;1757682;80;21061;-92
2021/06/26 15:37:34;;;;;;;0.30;0.30;;;;;;;27.31;37.34;99574.80;1758740;80;21147;-92
2021/06/26 15:40:08;;;;;;;1.07;0.55;;;;;;;27.24;37.37;99565.69;1747032;80;21170;-91
2021/06/26 15:42:42;;;;;;;5.12;0.47;;;;;;;27.31;37.15;99567.42;1701575;83;21091;-91
2021/06/26 15:45:16;;;;;;;0.60;0.40;;;;;;;27.35;37.49;99567.02;1708964;82;21126;-91
2021/06/26 15:47:42;;;;;;;2.42;0.62;;;;;;;27.40;37.66;99573.47;1675214;83;21089;-93
2021/06/26 15:50:17;;;;;;;2.15;0.40;;;;;;;27.42;37.48;99589.80;1726853;80;21205;-92
2021/06/26 15:52:43;;;;;;;3.37;0.33;;;;;;;27.46;37.39;99608.55;1743471;80;21036;-92
2021/06/26 15:55:17;;;;;;;4.28;0.95;;;;;;;27.51;37.39;99603.50;1747952;80;21534;-90
2021/06/26 15:57:43;;;;;;;5.15;0.57;;;;;;;27.55;37.18;99605.84;1759505;80;21078;-90
2021/06/26 16:00:11;;;;;;;1.42;0.40;;;;;;;27.58;37.13;99615.59;1751491;77;20970;-91
2021/06/26 16:02:39;;;;;;;1.10;0.25;;;;;;;27.60;37.00;99637.17;1793752;77;21052;-91
2021/06/26 16:05:10;;;;;;;0.85;0.28;;;;;;;27.63;37.00;99659.78;1785145;79;21091;-90
2021/06/26 16:07:38;;;;;;;1.25;0.30;;;;;;;27.62;36.81;99670.50;1797055;77;21017;-90
2021/06/26 16:10:12;;;;;;;1.98;0.47;;;;;;;27.62;36.97;99698.45;1773258;78;21149;-93
2021/06/26 16:12:40;;;;;;;0.60;0.35;;;;;;;27.58;37.11;99705.12;1782432;77;21190;-90
2021/06/26 16:15:13;;;;;;;6.05;0.88;;;;;;;27.56;37.66;99738.84;1767423;79;21105;-92
2021/06/26 16:17:40;;;;;;;6.08;0.50;;;;;;;27.45;38.13;99814.94;1757828;79;21025;-94
2021/06/26 16:20:10;;;;;;;6.85;1.15;;;;;;;27.30;39.22;99851.72;1738517;80;20926;-93
2021/06/26 16:22:41;;;;;;;7.97;1.32;;;;;;;27.08;41.18;99852.49;1756542;79;20974;-92
2021/06/26 16:25:09;;;;;;;10.08;1.60;;;;;;;26.82;42.74;99852.28;1756314;80;21140;-92
2021/06/26 16:27:39;;;;;;;6.47;1.42;;;;;;;26.57;43.26;99854.45;1750838;80;21073;-91
2021/06/26 16:30:13;;;;;;;9.10;1.45;;;;;;;26.47;43.96;99880.64;1742155;80;21033;-93
2021/06/26 16:32:41;;;;;;;2.92;1.02;;;;;;;26.37;45.20;99869.91;1757365;80;21076;-93
2021/06/26 16:35:09;;;;;;;4.22;1.10;;;;;;;26.21;45.98;99844.28;1733362;80;21065;-92
2021/06/26 16:37:41;;;;;;;10.82;1.50;;;;;;;26.09;46.10;99837.71;1760244;80;21124;-92
2021/06/26 16:40:15;;;;;;;4.65;1.80;;;;;;;26.01;46.36;99840.59;1754173;79;21038;-91
2021/06/26 16:42:42;;;;;;;8.45;2.00;;;;;;;25.93;46.09;99838.02;1754971;80;21087;-93
2021/06/26 16:45:14;;;;;;;2.65;0.70;;;;;;;25.84;46.46;99838.44;1761149;80;21045;-94
2021/06/26 16:47:43;;;;;;;4.42;0.78;;;;;;;25.78;45.94;99825.45;1734958;80;21139;-91
2021/06/26 16:50:11;;;;;;;1.65;0.50;;;;;;;25.67;46.05;99804.11;1772281;79;21054;-92
2021/06/26 16:52:41;;;;;;;5.35;0.90;;;;;;;25.54;46.13;99799.72;1784292;79;21125;-93
2021/06/26 16:55:12;;;;;;;4.97;1.82;;;;;;;25.42;46.62;99798.83;1754360;79;21020;-94
2021/06/26 16:57:43;;;;;;;3.95;1.00;;;;;;;25.30;46.93;99779.42;1772926;79;21048;-91
2021/06/26 17:00:13;;;;;;;4.97;0.88;;;;;;;25.23;46.87;99768.89;1778802;79;21568;-91
2021/06/26 17:02:41;;;;;;;7.92;0.80;;;;;;;25.21;46.65;99755.28;1749808;80;21018;-95
2021/06/26 17:05:11;;;;;;;2.65;1.37;;;;;;;25.20;46.37;99770.01;1759029;80;21092;-92
2021/06/26 17:07:43;;;;;;;1.40;1.00;;;;;;;25.21;46.72;99752.55;1744681;80;21027;-92
2021/06/26 17:10:23;;;;;;;3.45;1.15;;;;;;;25.23;46.57;99754.45;1733021;80;21583;-91
2021/06/26 17:12:49;;;;;;;1.52;0.55;;;;;;;25.25;46.11;99739.39;1797557;78;21022;-93
2021/06/26 17:15:16;;;;;;;5.50;0.53;;;;;;;25.28;46.06;99736.64;1759734;80;21109;-89
2021/06/26 17:17:43;;;;;;;3.65;1.02;;;;;;;25.32;45.97;99734.13;1748195;81;21589;-90
2021/06/26 17:20:12;;;;;;;4.30;1.67;;;;;;;25.34;45.95;99734.06;1753309;80;20987;-91
2021/06/26 17:22:42;;;;;;;5.50;1.05;;;;;;;25.37;45.88;99734.84;1763227;78;21097;-92
2021/06/26 17:25:14;;;;;;;4.03;0.93;;;;;;;25.37;45.96;99734.84;1746813;79;21026;-91
2021/06/26 17:27:50;;;;;;;2.60;0.72;;;;;;;25.37;45.92;99727.19;1773473;79;20974;-92
2021/06/26 17:30:26;;;;;;;4.20;0.72;;;;;;;25.36;46.09;99730.47;1758369;79;20994;-92
2021/06/26 17:32:54;;;;;;;0.70;0.70;;;;;;;25.33;46.15;99734.36;1771050;79;21144;-93
2021/06/26 17:35:29;;;;;;;2.47;0.57;;;;;;;25.28;46.28;99733.91;1704021;81;21083;-93
2021/06/26 17:38:05;;;;;;;2.98;0.82;;;;;;;25.27;46.43;99720.57;1706444;81;21101;-93
2021/06/26 17:40:39;;;;;;;4.03;1.22;;;;;;;25.25;46.79;99728.48;1755339;80;21742;-94
2021/06/26 17:43:16;;;;;;;2.30;1.00;;;;;;;25.25;46.82;99713.48;1734477;80;21018;-94
2021/06/26 17:45:41;;;;;;;2.80;0.72;;;;;;;25.25;46.84;99716.21;1757478;80;21130;-93
2021/06/26 17:48:24;;;;;;;6.05;1.57;;;;;;;25.26;46.94;99708.86;1767792;79;21060;-95
2021/06/26 17:50:49;;;;;;;2.33;0.80;;;;;;;25.24;47.15;99709.69;1741602;80;21802;-92
2021/06/26 17:53:16;;;;;;;8.68;1.00;;;;;;;25.20;47.27;99697.20;1757077;80;21119;-89
2021/06/26 17:56:08;;;;;;;;;;;;;;;;;;;;;
2021/06/26 17:58:28;;;;;;;3.65;0.98;;;;;;;25.11;47.72;99697.65;1801180;77;21005;-92
2021/06/26 18:00:56;;;;;;;5.17;0.72;;;;;;;25.06;47.81;99698.53;1784302;78;21056;-94
2021/06/26 18:03:28;;;;;;;6.17;1.30;;;;;;;25.03;47.99;99704.61;1747763;80;21095;-93
2021/06/26 18:14:30;;;;;;;6.17;1.90;;;;;;;24.93;48.46;99733.95;1753756;80;21079;-91
2021/06/26 18:17:01;;;;;;;8.50;2.25;;;;;;;24.95;49.35;99746.17;1764150;80;21048;-94
2021/06/26 18:19:29;;;;;;;8.35;2.22;;;;;;;24.96;49.65;99743.71;1742750;80;21206;-93
2021/06/26 18:21:55;;;;;;;3.17;1.75;;;;;;;24.93;49.93;99751.11;1748511;80;21104;-93
2021/06/26 18:24:23;;;;;;;2.08;1.80;;;;;;;24.90;50.22;99754.42;1760658;80;21029;-92
2021/06/26 18:26:57;;;;;;;9.08;2.08;;;;;;;24.89;50.83;99759.64;1757816;80;21052;-93
2021/06/26 18:29:38;;;;;;;3.67;2.08;;;;;;;24.81;51.31;99755.67;1765024;80;21005;-94
2021/06/26 18:57:21;;;;;;;5.83;2.70;;;;;;;24.53;54.72;99774.38;1645095;82;21195;-86
2021/06/26 18:59:48;;;;;;;3.15;2.95;;;;;;;24.48;55.10;99756.95;1629133;85;21575;-85
2021/06/26 19:02:15;;;;;;;5.47;3.10;;;;;;;24.44;55.20;99754.56;1684792;81;21130;-86
2021/06/26 19:04:49;;;;;;;6.95;2.90;;;;;;;24.43;55.41;99749.41;1670451;82;21038;-85
2021/06/26 19:07:16;;;;;;;8.43;2.55;;;;;;;24.43;55.42;99752.13;1683406;83;21500;-86
2021/06/26 19:09:50;;;;;;;7.58;4.60;;;;;;;24.45;55.40;99749.39;1689675;83;21087;-93
2021/06/26 19:12:19;;;;;;;3.55;3.25;;;;;;;23.17;55.33;99544.31;1661623;83;21099;-85
2021/06/26 19:14:47;;;;;;;6.62;2.30;;;;;;;24.45;55.39;99758.92;1667786;83;21079;-83
2021/06/26 19:17:13;;;;;;;3.47;2.20;;;;;;;24.46;55.37;99760.52;1667376;84;21185;-85
2021/06/26 19:19:39;;;;;;;3.27;2.52;;;;;;;24.40;55.43;99773.17;1631864;86;21141;-83
2021/06/26 19:22:05;;;;;;;6.42;2.72;;;;;;;24.32;55.80;99774.64;1632723;86;21081;-84
2021/06/26 19:24:42;;;;;;;;;;;;;;;;;;;;;
2021/06/26 19:27:26;;;;;;;3.87;3.35;;;;;;;24.22;56.61;99772.04;1610746;85;21007;-92
2021/06/26 21:00:32;;;;;;;3.33;1.62;;;;;;;23.46;59.99;99831.11;1660803;83;21387;-91
2021/06/26 21:21:06;;;;;;;1.50;1.40;;;;;;;23.22;58.07;99845.19;1649097;85;21147;-89
2021/06/26 21:23:31;;;;;;;2.67;1.70;;;;;;;23.09;58.36;99843.93;1674190;83;20996;-89
2021/06/26 21:26:29;;;;;;;5.87;2.33;;;;;;;23.05;58.75;99843.68;1664309;85;21041;-90
2021/06/26 21:29:03;;;;;;;2.87;1.32;;;;;;;21.94;58.63;99662.97;1496420;92;21184;-90
2021/06/26 21:31:29;;;;;;;1.47;1.37;;;;;;;22.99;58.85;99840.71;1621461;84;21093;-88
2021/06/26 21:37:29;;;;;;;3.90;2.00;;;;;;;22.93;59.32;99816.03;1579784;83;21189;-87
2021/06/26 21:49:50;;;;;;;;;;;;;;;;;;;;;
2021/06/26 21:52:58;;;;;;;;;;;;;;;;;;;;;
2021/06/26 21:55:50;;;;;;;;;;;;;;;;;;;;;
2021/06/26 21:59:18;;;;;;;;;;;;;;;;;;;;;
2021/06/26 22:05:04;;;;;;;5.12;3.00;;;;;;;22.72;60.97;99803.95;1452403;96;21225;-91
2021/06/26 22:13:57;;;;;;;5.75;2.55;;;;;;;22.65;61.42;99810.24;1513358;92;21164;-91
2021/06/26 22:26:21;;;;;;;8.05;4.50;;;;;;;22.68;61.61;99783.08;1536025;89;21213;-95
2021/06/26 22:29:18;;;;;;;;;;;;;;;;;;;;;
2021/06/26 22:31:51;;;;;;;4.78;4.05;;;;;;;22.59;62.18;99802.42;1553553;91;21640;-94
2021/06/26 22:44:14;;;;;;;10.78;4.33;;;;;;;22.57;62.36;99774.18;1484452;92;20345;31
2021/06/26 22:46:44;;;;;;;7.72;5.12;;;;;;;22.49;62.64;99782.91;1539841;89;21143;-91
2021/06/26 22:49:23;;;;;;;9.38;4.80;;;;;;;22.47;63.04;99791.36;1546540;88;21086;-91
2021/06/26 22:51:51;;;;;;;6.12;4.42;;;;;;;22.49;62.98;99779.66;1606994;88;21019;-91
2021/06/26 22:54:22;;;;;;;6.42;4.58;;;;;;;22.54;62.71;99771.46;1583033;88;21162;-90
2021/06/26 22:56:55;;;;;;;5.72;4.60;;;;;;;22.58;62.60;99776.34;1668004;84;21121;-90
2021/06/26 23:18:09;;;;;;;5.20;4.58;;;;;;;22.28;63.40;99749.12;1456480;95;21133;-90
2021/06/26 23:21:02;;;;;;;5.33;4.75;;;;;;;22.21;63.83;99751.29;1405047;100;21180;-92
2021/06/26 23:30:25;;;;;;;;;;;;;;;;;;;;;
